sensor_id;sensor_type;location;lat;lon;timestamp;temperature;humidity
25250;DHT22;13201;51.148;13.738;2022-10-31T00:02:23;13.40;99.90
25250;DHT22;13201;51.148;13.738;2022-10-31T00:04:48;13.20;99.90
25250;DHT22;13201;51.148;13.738;2022-10-31T00:07:14;13.30;99.90
25250;DHT22;13201;51.148;13.738;2022-10-31T00:09:40;13.30;99.90
25250;DHT22;13201;51.148;13.738;2022-10-31T00:12:05;13.30;99.90
25250;DHT22;13201;51.148;13.738;2022-10-31T00:14:31;13.30;99.90
25250;DHT22;13201;51.148;13.738;2022-10-31T00:16:56;13.40;99.90
25250;DHT22;13201;51.148;13.738;2022-10-31T00:19:22;13.30;99.90
25250;DHT22;13201;51.148;13.738;2022-10-31T00:21:47;13.30;99.90
25250;DHT22;13201;51.148;13.738;2022-10-31T00:24:13;13.10;99.90
25250;DHT22;13201;51.148;13.738;2022-10-31T00:26:39;13.10;99.90
25250;DHT22;13201;51.148;13.738;2022-10-31T00:29:04;12.90;99.90
25250;DHT22;13201;51.148;13.738;2022-10-31T00:31:30;12.90;99.90
25250;DHT22;13201;51.148;13.738;2022-10-31T00:33:57;12.80;99.90
25250;DHT22;13201;51.148;13.738;2022-10-31T00:36:23;12.70;99.90
25250;DHT22;13201;51.148;13.738;2022-10-31T00:38:48;12.60;99.90
25250;DHT22;13201;51.148;13.738;2022-10-31T00:41:16;12.70;99.90
25250;DHT22;13201;51.148;13.738;2022-10-31T00:43:42;12.70;99.90
25250;DHT22;13201;51.148;13.738;2022-10-31T00:46:09;12.70;99.90
25250;DHT22;13201;51.148;13.738;2022-10-31T00:48:35;12.60;99.90
25250;DHT22;13201;51.148;13.738;2022-10-31T00:51:00;12.70;99.90
25250;DHT22;13201;51.148;13.738;2022-10-31T00:53:26;12.50;99.90
25250;DHT22;13201;51.148;13.738;2022-10-31T00:55:52;12.70;99.90
25250;DHT22;13201;51.148;13.738;2022-10-31T00:58:17;12.60;99.90
25250;DHT22;13201;51.148;13.738;2022-10-31T01:00:43;12.60;99.90
25250;DHT22;13201;51.148;13.738;2022-10-31T01:03:08;12.70;99.90
25250;DHT22;13201;51.148;13.738;2022-10-31T01:05:34;12.70;99.90
25250;DHT22;13201;51.148;13.738;2022-10-31T01:31:31;11.30;99.90
25250;DHT22;13201;51.148;13.738;2022-10-31T01:33:58;11.10;99.90
25250;DHT22;13201;51.148;13.738;2022-10-31T01:36:26;11.20;99.90
25250;DHT22;13201;51.148;13.738;2022-10-31T01:38:56;11.20;99.90
25250;DHT22;13201;51.148;13.738;2022-10-31T01:41:26;11.40;99.90
25250;DHT22;13201;51.148;13.738;2022-10-31T01:46:24;11.60;99.90
25250;DHT22;13201;51.148;13.738;2022-10-31T01:48:52;11.70;99.90
25250;DHT22;13201;51.148;13.738;2022-10-31T01:51:20;11.90;99.90
25250;DHT22;13201;51.148;13.738;2022-10-31T01:53:48;12.00;99.90
25250;DHT22;13201;51.148;13.738;2022-10-31T01:56:15;12.00;99.90
25250;DHT22;13201;51.148;13.738;2022-10-31T01:58:42;12.00;99.90
25250;DHT22;13201;51.148;13.738;2022-10-31T02:01:10;12.10;99.90
25250;DHT22;13201;51.148;13.738;2022-10-31T02:03:37;12.10;99.90
25250;DHT22;13201;51.148;13.738;2022-10-31T02:06:07;12.00;99.90
25250;DHT22;13201;51.148;13.738;2022-10-31T02:08:37;12.10;99.90
25250;DHT22;13201;51.148;13.738;2022-10-31T02:11:05;12.00;99.90
25250;DHT22;13201;51.148;13.738;2022-10-31T02:13:31;11.90;99.90
25250;DHT22;13201;51.148;13.738;2022-10-31T02:15:59;11.90;99.90
25250;DHT22;13201;51.148;13.738;2022-10-31T02:18:27;12.00;99.90
25250;DHT22;13201;51.148;13.738;2022-10-31T02:30:16;11.90;99.90
25250;DHT22;13201;51.148;13.738;2022-10-31T02:33:01;11.90;99.90
25250;DHT22;13201;51.148;13.738;2022-10-31T02:35:47;12.00;99.90
25250;DHT22;13201;51.148;13.738;2022-10-31T02:38:38;12.10;99.90
25250;DHT22;13201;51.148;13.738;2022-10-31T02:41:17;12.00;99.90
25250;DHT22;13201;51.148;13.738;2022-10-31T02:46:29;11.80;99.90
25250;DHT22;13201;51.148;13.738;2022-10-31T02:49:06;11.70;99.90
25250;DHT22;13201;51.148;13.738;2022-10-31T02:51:33;11.60;99.90
25250;DHT22;13201;51.148;13.738;2022-10-31T02:53:58;11.70;99.90
25250;DHT22;13201;51.148;13.738;2022-10-31T02:56:24;11.70;99.90
25250;DHT22;13201;51.148;13.738;2022-10-31T02:58:55;11.70;99.90
25250;DHT22;13201;51.148;13.738;2022-10-31T03:09:57;11.80;99.90
25250;DHT22;13201;51.148;13.738;2022-10-31T03:12:30;11.70;99.90
25250;DHT22;13201;51.148;13.738;2022-10-31T03:20:19;11.60;99.90
25250;DHT22;13201;51.148;13.738;2022-10-31T03:22:46;11.90;99.90
25250;DHT22;13201;51.148;13.738;2022-10-31T03:25:13;11.80;99.90
25250;DHT22;13201;51.148;13.738;2022-10-31T03:27:39;11.80;99.90
25250;DHT22;13201;51.148;13.738;2022-10-31T03:30:06;11.70;99.90
25250;DHT22;13201;51.148;13.738;2022-10-31T03:32:51;11.60;99.90
25250;DHT22;13201;51.148;13.738;2022-10-31T03:35:20;11.60;99.90
25250;DHT22;13201;51.148;13.738;2022-10-31T03:37:48;11.60;99.90
25250;DHT22;13201;51.148;13.738;2022-10-31T03:40:16;11.60;99.90
25250;DHT22;13201;51.148;13.738;2022-10-31T03:42:49;11.40;99.90
25250;DHT22;13201;51.148;13.738;2022-10-31T03:45:25;11.40;99.90
25250;DHT22;13201;51.148;13.738;2022-10-31T03:47:52;11.30;99.90
25250;DHT22;13201;51.148;13.738;2022-10-31T03:50:19;11.30;99.90
25250;DHT22;13201;51.148;13.738;2022-10-31T03:52:58;11.40;99.90
25250;DHT22;13201;51.148;13.738;2022-10-31T03:58:14;11.30;99.90
25250;DHT22;13201;51.148;13.738;2022-10-31T04:00:44;11.20;99.90
25250;DHT22;13201;51.148;13.738;2022-10-31T04:03:14;11.20;99.90
25250;DHT22;13201;51.148;13.738;2022-10-31T04:05:44;11.10;99.90
25250;DHT22;13201;51.148;13.738;2022-10-31T04:08:15;11.10;99.90
25250;DHT22;13201;51.148;13.738;2022-10-31T04:10:43;11.00;99.90
25250;DHT22;13201;51.148;13.738;2022-10-31T04:13:13;11.10;99.90
25250;DHT22;13201;51.148;13.738;2022-10-31T04:15:41;11.00;99.90
25250;DHT22;13201;51.148;13.738;2022-10-31T04:18:08;11.00;99.90
25250;DHT22;13201;51.148;13.738;2022-10-31T04:20:39;10.90;99.90
25250;DHT22;13201;51.148;13.738;2022-10-31T04:23:10;10.90;99.90
25250;DHT22;13201;51.148;13.738;2022-10-31T04:25:37;10.90;99.90
25250;DHT22;13201;51.148;13.738;2022-10-31T04:28:03;11.00;99.90
25250;DHT22;13201;51.148;13.738;2022-10-31T04:30:29;10.90;99.90
25250;DHT22;13201;51.148;13.738;2022-10-31T04:32:54;10.80;99.90
25250;DHT22;13201;51.148;13.738;2022-10-31T04:35:20;10.80;99.90
25250;DHT22;13201;51.148;13.738;2022-10-31T04:37:45;10.80;99.90
25250;DHT22;13201;51.148;13.738;2022-10-31T04:40:11;10.80;99.90
25250;DHT22;13201;51.148;13.738;2022-10-31T04:42:37;10.80;99.90
25250;DHT22;13201;51.148;13.738;2022-10-31T04:45:03;10.80;99.90
25250;DHT22;13201;51.148;13.738;2022-10-31T04:47:31;10.80;99.90
25250;DHT22;13201;51.148;13.738;2022-10-31T04:49:58;10.80;99.90
25250;DHT22;13201;51.148;13.738;2022-10-31T04:52:23;10.80;99.90
25250;DHT22;13201;51.148;13.738;2022-10-31T04:54:49;10.80;99.90
25250;DHT22;13201;51.148;13.738;2022-10-31T04:57:14;10.80;99.90
25250;DHT22;13201;51.148;13.738;2022-10-31T04:59:40;10.80;99.90
25250;DHT22;13201;51.148;13.738;2022-10-31T05:02:05;10.70;99.90
25250;DHT22;13201;51.148;13.738;2022-10-31T05:04:31;10.70;99.90
25250;DHT22;13201;51.148;13.738;2022-10-31T05:06:57;10.60;99.90
25250;DHT22;13201;51.148;13.738;2022-10-31T05:09:22;10.60;99.90
25250;DHT22;13201;51.148;13.738;2022-10-31T05:11:48;10.60;99.90
25250;DHT22;13201;51.148;13.738;2022-10-31T05:14:13;10.70;99.90
25250;DHT22;13201;51.148;13.738;2022-10-31T05:16:39;10.70;99.90
25250;DHT22;13201;51.148;13.738;2022-10-31T05:19:05;10.70;99.90
25250;DHT22;13201;51.148;13.738;2022-10-31T05:21:30;10.40;99.90
25250;DHT22;13201;51.148;13.738;2022-10-31T05:23:56;10.40;99.90
25250;DHT22;13201;51.148;13.738;2022-10-31T05:26:21;10.30;99.90
25250;DHT22;13201;51.148;13.738;2022-10-31T05:28:47;10.40;99.90
25250;DHT22;13201;51.148;13.738;2022-10-31T05:31:12;10.40;99.90
25250;DHT22;13201;51.148;13.738;2022-10-31T05:33:38;10.40;99.90
25250;DHT22;13201;51.148;13.738;2022-10-31T05:36:04;10.40;99.90
25250;DHT22;13201;51.148;13.738;2022-10-31T05:38:30;10.40;99.90
25250;DHT22;13201;51.148;13.738;2022-10-31T05:40:56;10.40;99.90
25250;DHT22;13201;51.148;13.738;2022-10-31T05:43:26;10.50;99.90
25250;DHT22;13201;51.148;13.738;2022-10-31T05:45:53;10.50;99.90
25250;DHT22;13201;51.148;13.738;2022-10-31T05:48:19;10.40;99.90
25250;DHT22;13201;51.148;13.738;2022-10-31T05:50:46;10.40;99.90
25250;DHT22;13201;51.148;13.738;2022-10-31T05:53:12;10.50;99.90
25250;DHT22;13201;51.148;13.738;2022-10-31T05:55:37;10.40;99.90
25250;DHT22;13201;51.148;13.738;2022-10-31T05:58:03;10.30;99.90
25250;DHT22;13201;51.148;13.738;2022-10-31T06:00:29;10.40;99.90
25250;DHT22;13201;51.148;13.738;2022-10-31T06:02:59;10.30;99.90
25250;DHT22;13201;51.148;13.738;2022-10-31T06:05:25;10.40;99.90
25250;DHT22;13201;51.148;13.738;2022-10-31T06:07:50;10.30;99.90
25250;DHT22;13201;51.148;13.738;2022-10-31T06:10:16;10.40;99.90
25250;DHT22;13201;51.148;13.738;2022-10-31T06:12:42;10.40;99.90
25250;DHT22;13201;51.148;13.738;2022-10-31T06:15:08;10.40;99.90
25250;DHT22;13201;51.148;13.738;2022-10-31T06:17:34;10.30;99.90
25250;DHT22;13201;51.148;13.738;2022-10-31T06:20:00;10.40;99.90
25250;DHT22;13201;51.148;13.738;2022-10-31T06:22:26;10.20;99.90
25250;DHT22;13201;51.148;13.738;2022-10-31T06:24:52;10.10;99.90
25250;DHT22;13201;51.148;13.738;2022-10-31T06:27:17;10.30;99.90
25250;DHT22;13201;51.148;13.738;2022-10-31T06:29:43;10.30;99.90
25250;DHT22;13201;51.148;13.738;2022-10-31T06:32:12;10.20;99.90
25250;DHT22;13201;51.148;13.738;2022-10-31T06:34:38;10.40;99.90
25250;DHT22;13201;51.148;13.738;2022-10-31T06:37:06;10.40;99.90
25250;DHT22;13201;51.148;13.738;2022-10-31T06:39:32;10.50;99.90
25250;DHT22;13201;51.148;13.738;2022-10-31T06:41:58;10.50;99.90
25250;DHT22;13201;51.148;13.738;2022-10-31T06:44:23;10.60;99.90
25250;DHT22;13201;51.148;13.738;2022-10-31T06:46:49;10.60;99.90
25250;DHT22;13201;51.148;13.738;2022-10-31T06:49:15;10.60;99.90
25250;DHT22;13201;51.148;13.738;2022-10-31T06:51:40;10.50;99.90
25250;DHT22;13201;51.148;13.738;2022-10-31T06:54:06;10.60;99.90
25250;DHT22;13201;51.148;13.738;2022-10-31T06:56:32;10.70;99.90
25250;DHT22;13201;51.148;13.738;2022-10-31T06:58:57;10.70;99.90
25250;DHT22;13201;51.148;13.738;2022-10-31T07:01:23;10.80;99.90
25250;DHT22;13201;51.148;13.738;2022-10-31T07:03:49;10.80;99.90
25250;DHT22;13201;51.148;13.738;2022-10-31T07:06:14;10.80;99.90
25250;DHT22;13201;51.148;13.738;2022-10-31T07:08:40;10.90;99.90
25250;DHT22;13201;51.148;13.738;2022-10-31T07:11:05;11.10;99.90
25250;DHT22;13201;51.148;13.738;2022-10-31T07:13:31;11.10;99.90
25250;DHT22;13201;51.148;13.738;2022-10-31T07:16:01;11.20;99.90
25250;DHT22;13201;51.148;13.738;2022-10-31T07:18:28;11.30;99.90
25250;DHT22;13201;51.148;13.738;2022-10-31T07:20:53;11.40;99.90
25250;DHT22;13201;51.148;13.738;2022-10-31T07:23:19;11.50;99.90
25250;DHT22;13201;51.148;13.738;2022-10-31T07:25:45;11.50;99.90
25250;DHT22;13201;51.148;13.738;2022-10-31T07:28:11;11.60;99.90
25250;DHT22;13201;51.148;13.738;2022-10-31T07:30:37;11.70;99.90
25250;DHT22;13201;51.148;13.738;2022-10-31T07:33:04;11.80;99.90
25250;DHT22;13201;51.148;13.738;2022-10-31T07:35:31;11.90;99.90
25250;DHT22;13201;51.148;13.738;2022-10-31T07:37:57;11.90;99.90
25250;DHT22;13201;51.148;13.738;2022-10-31T07:40:23;12.00;99.90
25250;DHT22;13201;51.148;13.738;2022-10-31T07:42:51;12.20;99.90
25250;DHT22;13201;51.148;13.738;2022-10-31T07:45:18;12.30;99.90
25250;DHT22;13201;51.148;13.738;2022-10-31T07:50:14;12.40;99.90
25250;DHT22;13201;51.148;13.738;2022-10-31T07:52:40;12.50;99.90
25250;DHT22;13201;51.148;13.738;2022-10-31T07:55:07;12.60;99.90
25250;DHT22;13201;51.148;13.738;2022-10-31T07:57:32;12.70;99.90
25250;DHT22;13201;51.148;13.738;2022-10-31T07:59:58;12.70;99.90
25250;DHT22;13201;51.148;13.738;2022-10-31T08:02:24;12.80;99.90
25250;DHT22;13201;51.148;13.738;2022-10-31T08:04:50;12.90;99.90
25250;DHT22;13201;51.148;13.738;2022-10-31T08:07:16;13.00;99.90
25250;DHT22;13201;51.148;13.738;2022-10-31T08:09:41;13.10;99.90
25250;DHT22;13201;51.148;13.738;2022-10-31T08:12:07;13.10;99.90
25250;DHT22;13201;51.148;13.738;2022-10-31T08:14:33;13.20;99.90
25250;DHT22;13201;51.148;13.738;2022-10-31T08:16:58;13.30;99.90
25250;DHT22;13201;51.148;13.738;2022-10-31T08:19:24;13.40;99.90
25250;DHT22;13201;51.148;13.738;2022-10-31T08:21:53;13.50;99.90
25250;DHT22;13201;51.148;13.738;2022-10-31T08:24:20;13.60;99.90
25250;DHT22;13201;51.148;13.738;2022-10-31T08:26:47;13.60;99.90
25250;DHT22;13201;51.148;13.738;2022-10-31T08:29:12;13.70;99.90
25250;DHT22;13201;51.148;13.738;2022-10-31T08:31:38;13.80;99.90
25250;DHT22;13201;51.148;13.738;2022-10-31T08:34:04;13.80;99.90
25250;DHT22;13201;51.148;13.738;2022-10-31T08:36:29;13.90;99.90
25250;DHT22;13201;51.148;13.738;2022-10-31T08:38:55;14.00;99.90
25250;DHT22;13201;51.148;13.738;2022-10-31T08:41:21;14.10;99.90
25250;DHT22;13201;51.148;13.738;2022-10-31T08:43:47;14.20;99.90
25250;DHT22;13201;51.148;13.738;2022-10-31T08:46:12;14.30;99.90
25250;DHT22;13201;51.148;13.738;2022-10-31T08:48:38;14.40;99.90
25250;DHT22;13201;51.148;13.738;2022-10-31T08:51:05;14.50;99.90
25250;DHT22;13201;51.148;13.738;2022-10-31T08:53:31;14.50;99.90
25250;DHT22;13201;51.148;13.738;2022-10-31T08:55:56;14.60;99.90
25250;DHT22;13201;51.148;13.738;2022-10-31T08:58:23;14.70;99.90
25250;DHT22;13201;51.148;13.738;2022-10-31T09:00:54;14.80;99.90
25250;DHT22;13201;51.148;13.738;2022-10-31T09:03:23;14.90;99.90
25250;DHT22;13201;51.148;13.738;2022-10-31T09:05:49;15.00;99.90
25250;DHT22;13201;51.148;13.738;2022-10-31T09:08:16;15.10;99.90
25250;DHT22;13201;51.148;13.738;2022-10-31T09:10:42;15.20;99.90
25250;DHT22;13201;51.148;13.738;2022-10-31T09:13:10;15.40;99.90
25250;DHT22;13201;51.148;13.738;2022-10-31T09:15:39;15.50;99.90
25250;DHT22;13201;51.148;13.738;2022-10-31T09:18:07;15.60;99.90
25250;DHT22;13201;51.148;13.738;2022-10-31T09:20:34;15.80;99.90
25250;DHT22;13201;51.148;13.738;2022-10-31T09:23:02;15.80;99.90
25250;DHT22;13201;51.148;13.738;2022-10-31T09:25:28;16.00;99.90
25250;DHT22;13201;51.148;13.738;2022-10-31T09:27:58;16.00;99.90
25250;DHT22;13201;51.148;13.738;2022-10-31T09:30:28;16.00;99.90
25250;DHT22;13201;51.148;13.738;2022-10-31T09:33:02;16.20;99.90
25250;DHT22;13201;51.148;13.738;2022-10-31T09:35:28;16.30;99.90
25250;DHT22;13201;51.148;13.738;2022-10-31T09:37:55;16.40;99.90
25250;DHT22;13201;51.148;13.738;2022-10-31T09:40:22;16.50;99.90
25250;DHT22;13201;51.148;13.738;2022-10-31T09:48:07;16.70;99.90
25250;DHT22;13201;51.148;13.738;2022-10-31T09:50:42;16.80;99.90
25250;DHT22;13201;51.148;13.738;2022-10-31T09:55:44;17.00;99.90
25250;DHT22;13201;51.148;13.738;2022-10-31T09:58:19;17.00;99.90
25250;DHT22;13201;51.148;13.738;2022-10-31T10:00:47;17.10;99.90
25250;DHT22;13201;51.148;13.738;2022-10-31T10:03:43;17.10;99.90
25250;DHT22;13201;51.148;13.738;2022-10-31T10:06:24;17.20;99.90
25250;DHT22;13201;51.148;13.738;2022-10-31T10:08:52;17.30;99.90
25250;DHT22;13201;51.148;13.738;2022-10-31T10:31:07;17.90;99.90
25250;DHT22;13201;51.148;13.738;2022-10-31T10:33:40;17.90;99.90
25250;DHT22;13201;51.148;13.738;2022-10-31T10:36:26;18.00;99.90
25250;DHT22;13201;51.148;13.738;2022-10-31T10:39:11;18.00;99.90
25250;DHT22;13201;51.148;13.738;2022-10-31T10:41:43;18.20;99.90
25250;DHT22;13201;51.148;13.738;2022-10-31T10:44:10;18.30;99.90
25250;DHT22;13201;51.148;13.738;2022-10-31T10:49:40;18.40;99.90
25250;DHT22;13201;51.148;13.738;2022-10-31T10:59:45;18.70;99.90
25250;DHT22;13201;51.148;13.738;2022-10-31T11:02:21;18.70;99.90
25250;DHT22;13201;51.148;13.738;2022-10-31T11:04:51;18.80;99.90
25250;DHT22;13201;51.148;13.738;2022-10-31T11:07:17;18.90;99.90
25250;DHT22;13201;51.148;13.738;2022-10-31T11:09:43;19.00;99.90
25250;DHT22;13201;51.148;13.738;2022-10-31T11:12:35;19.10;99.90
25250;DHT22;13201;51.148;13.738;2022-10-31T11:15:07;19.30;99.90
25250;DHT22;13201;51.148;13.738;2022-10-31T11:17:36;19.20;99.90
25250;DHT22;13201;51.148;13.738;2022-10-31T11:20:28;19.30;99.90
25250;DHT22;13201;51.148;13.738;2022-10-31T11:23:14;19.40;99.90
25250;DHT22;13201;51.148;13.738;2022-10-31T11:25:48;19.60;99.90
25250;DHT22;13201;51.148;13.738;2022-10-31T11:28:14;19.80;99.90
25250;DHT22;13201;51.148;13.738;2022-10-31T11:30:55;19.80;99.90
25250;DHT22;13201;51.148;13.738;2022-10-31T11:35:50;20.00;99.90
25250;DHT22;13201;51.148;13.738;2022-10-31T11:38:20;20.00;99.90
25250;DHT22;13201;51.148;13.738;2022-10-31T11:40:58;20.00;99.90
25250;DHT22;13201;51.148;13.738;2022-10-31T11:43:25;20.10;99.90
25250;DHT22;13201;51.148;13.738;2022-10-31T11:45:51;20.20;99.90
25250;DHT22;13201;51.148;13.738;2022-10-31T11:48:22;20.20;99.90
25250;DHT22;13201;51.148;13.738;2022-10-31T11:50:58;20.30;99.90
25250;DHT22;13201;51.148;13.738;2022-10-31T11:53:33;20.50;99.90
25250;DHT22;13201;51.148;13.738;2022-10-31T11:58:27;20.70;99.90
25250;DHT22;13201;51.148;13.738;2022-10-31T12:00:55;20.60;99.90
25250;DHT22;13201;51.148;13.738;2022-10-31T12:06:16;20.70;99.90
25250;DHT22;13201;51.148;13.738;2022-10-31T12:08:44;21.00;99.90
25250;DHT22;13201;51.148;13.738;2022-10-31T12:14:20;20.80;99.90
25250;DHT22;13201;51.148;13.738;2022-10-31T12:16:54;21.20;99.90
25250;DHT22;13201;51.148;13.738;2022-10-31T12:22:24;21.30;99.90
25250;DHT22;13201;51.148;13.738;2022-10-31T12:30:49;21.40;99.90
25250;DHT22;13201;51.148;13.738;2022-10-31T12:34:00;21.50;99.90
25250;DHT22;13201;51.148;13.738;2022-10-31T12:41:53;21.10;99.90
25250;DHT22;13201;51.148;13.738;2022-10-31T12:55:20;21.20;99.90
25250;DHT22;13201;51.148;13.738;2022-10-31T12:57:53;21.20;99.90
25250;DHT22;13201;51.148;13.738;2022-10-31T13:00:21;21.30;99.90
25250;DHT22;13201;51.148;13.738;2022-10-31T13:05:43;21.10;99.90
25250;DHT22;13201;51.148;13.738;2022-10-31T13:08:14;21.10;99.90
25250;DHT22;13201;51.148;13.738;2022-10-31T13:11:18;21.10;99.90
25250;DHT22;13201;51.148;13.738;2022-10-31T13:14:14;21.00;99.90
25250;DHT22;13201;51.148;13.738;2022-10-31T13:16:46;21.00;99.90
25250;DHT22;13201;51.148;13.738;2022-10-31T13:19:33;21.00;99.90
25250;DHT22;13201;51.148;13.738;2022-10-31T13:22:06;21.00;99.90
25250;DHT22;13201;51.148;13.738;2022-10-31T13:30:18;21.20;99.90
25250;DHT22;13201;51.148;13.738;2022-10-31T13:32:52;21.20;99.90
25250;DHT22;13201;51.148;13.738;2022-10-31T13:35:26;21.30;99.90
25250;DHT22;13201;51.148;13.738;2022-10-31T13:38:22;21.20;99.90
25250;DHT22;13201;51.148;13.738;2022-10-31T13:41:01;21.20;99.90
25250;DHT22;13201;51.148;13.738;2022-10-31T13:44:20;21.40;99.90
25250;DHT22;13201;51.148;13.738;2022-10-31T13:46:25;21.40;99.90
25250;DHT22;13201;51.148;13.738;2022-10-31T13:48:51;21.40;99.90
25250;DHT22;13201;51.148;13.738;2022-10-31T13:51:28;21.60;99.90
25250;DHT22;13201;51.148;13.738;2022-10-31T13:56:30;21.80;99.90
25250;DHT22;13201;51.148;13.738;2022-10-31T14:01:24;22.00;99.90
25250;DHT22;13201;51.148;13.738;2022-10-31T14:04:44;22.00;99.90
25250;DHT22;13201;51.148;13.738;2022-10-31T14:07:05;22.20;99.90
25250;DHT22;13201;51.148;13.738;2022-10-31T14:12:08;22.30;99.90
25250;DHT22;13201;51.148;13.738;2022-10-31T14:14:47;22.40;99.90
25250;DHT22;13201;51.148;13.738;2022-10-31T14:17:58;22.20;99.90
25250;DHT22;13201;51.148;13.738;2022-10-31T14:22:58;22.30;99.90
25250;DHT22;13201;51.148;13.738;2022-10-31T14:25:34;22.10;99.90
25250;DHT22;13201;51.148;13.738;2022-10-31T14:28:02;22.20;99.90
25250;DHT22;13201;51.148;13.738;2022-10-31T14:30:29;22.00;99.90
25250;DHT22;13201;51.148;13.738;2022-10-31T14:32:59;22.10;99.90
25250;DHT22;13201;51.148;13.738;2022-10-31T14:38:22;22.50;99.90
25250;DHT22;13201;51.148;13.738;2022-10-31T14:41:08;22.50;99.90
25250;DHT22;13201;51.148;13.738;2022-10-31T14:43:42;22.40;99.90
25250;DHT22;13201;51.148;13.738;2022-10-31T14:46:19;22.30;99.90
25250;DHT22;13201;51.148;13.738;2022-10-31T14:51:43;21.60;99.90
25250;DHT22;13201;51.148;13.738;2022-10-31T14:54:30;21.60;99.90
25250;DHT22;13201;51.148;13.738;2022-10-31T14:57:16;21.20;99.90
25250;DHT22;13201;51.148;13.738;2022-10-31T14:59:48;20.50;99.90
25250;DHT22;13201;51.148;13.738;2022-10-31T15:02:31;19.90;99.90
25250;DHT22;13201;51.148;13.738;2022-10-31T15:05:07;19.70;99.90
25250;DHT22;13201;51.148;13.738;2022-10-31T15:07:33;19.60;99.90
25250;DHT22;13201;51.148;13.738;2022-10-31T15:10:05;19.80;99.90
25250;DHT22;13201;51.148;13.738;2022-10-31T15:12:34;19.40;99.90
25250;DHT22;13201;51.148;13.738;2022-10-31T15:15:23;18.90;99.90
25250;DHT22;13201;51.148;13.738;2022-10-31T15:17:58;18.70;99.90
25250;DHT22;13201;51.148;13.738;2022-10-31T15:20:44;18.50;99.90
25250;DHT22;13201;51.148;13.738;2022-10-31T15:23:14;18.40;99.90
25250;DHT22;13201;51.148;13.738;2022-10-31T15:25:41;18.50;99.90
25250;DHT22;13201;51.148;13.738;2022-10-31T15:28:23;18.20;99.90
25250;DHT22;13201;51.148;13.738;2022-10-31T15:30:54;18.10;99.90
25250;DHT22;13201;51.148;13.738;2022-10-31T15:33:26;18.10;99.90
25250;DHT22;13201;51.148;13.738;2022-10-31T15:35:57;18.30;99.90
25250;DHT22;13201;51.148;13.738;2022-10-31T15:38:23;18.20;99.90
25250;DHT22;13201;51.148;13.738;2022-10-31T15:41:05;18.10;99.90
25250;DHT22;13201;51.148;13.738;2022-10-31T15:43:36;18.00;99.90
25250;DHT22;13201;51.148;13.738;2022-10-31T15:46:03;17.80;99.90
25250;DHT22;13201;51.148;13.738;2022-10-31T15:48:29;17.80;99.90
25250;DHT22;13201;51.148;13.738;2022-10-31T15:51:00;17.50;99.90
25250;DHT22;13201;51.148;13.738;2022-10-31T15:53:48;17.40;99.90
25250;DHT22;13201;51.148;13.738;2022-10-31T15:56:27;17.20;99.90
25250;DHT22;13201;51.148;13.738;2022-10-31T15:58:55;16.90;99.90
25250;DHT22;13201;51.148;13.738;2022-10-31T16:01:27;16.70;99.90
25250;DHT22;13201;51.148;13.738;2022-10-31T16:06:28;16.70;99.90
25250;DHT22;13201;51.148;13.738;2022-10-31T16:08:53;16.60;99.90
25250;DHT22;13201;51.148;13.738;2022-10-31T16:11:24;16.50;99.90
25250;DHT22;13201;51.148;13.738;2022-10-31T16:16:28;16.70;99.90
25250;DHT22;13201;51.148;13.738;2022-10-31T16:18:55;16.50;99.90
25250;DHT22;13201;51.148;13.738;2022-10-31T16:21:32;16.50;99.90
25250;DHT22;13201;51.148;13.738;2022-10-31T16:24:10;16.30;99.90
25250;DHT22;13201;51.148;13.738;2022-10-31T16:26:37;16.20;99.90
25250;DHT22;13201;51.148;13.738;2022-10-31T16:29:03;16.40;99.90
25250;DHT22;13201;51.148;13.738;2022-10-31T16:31:39;16.20;99.90
25250;DHT22;13201;51.148;13.738;2022-10-31T16:34:14;16.30;99.90
25250;DHT22;13201;51.148;13.738;2022-10-31T16:36:40;16.20;99.90
25250;DHT22;13201;51.148;13.738;2022-10-31T16:39:07;16.10;99.90
25250;DHT22;13201;51.148;13.738;2022-10-31T16:41:39;16.20;99.90
25250;DHT22;13201;51.148;13.738;2022-10-31T16:44:19;16.30;99.90
25250;DHT22;13201;51.148;13.738;2022-10-31T16:46:46;16.00;99.90
25250;DHT22;13201;51.148;13.738;2022-10-31T16:49:13;16.10;99.90
25250;DHT22;13201;51.148;13.738;2022-10-31T16:51:40;16.00;99.90
25250;DHT22;13201;51.148;13.738;2022-10-31T16:54:06;16.00;99.90
25250;DHT22;13201;51.148;13.738;2022-10-31T16:56:36;16.10;99.90
25250;DHT22;13201;51.148;13.738;2022-10-31T16:59:05;16.00;99.90
25250;DHT22;13201;51.148;13.738;2022-10-31T17:01:32;16.10;99.90
25250;DHT22;13201;51.148;13.738;2022-10-31T17:03:59;16.10;99.90
25250;DHT22;13201;51.148;13.738;2022-10-31T17:06:25;16.10;99.90
25250;DHT22;13201;51.148;13.738;2022-10-31T17:08:53;16.00;99.90
25250;DHT22;13201;51.148;13.738;2022-10-31T17:11:21;15.80;99.90
25250;DHT22;13201;51.148;13.738;2022-10-31T17:13:47;15.80;99.90
25250;DHT22;13201;51.148;13.738;2022-10-31T17:16:13;15.80;99.90
25250;DHT22;13201;51.148;13.738;2022-10-31T17:18:41;15.90;99.90
25250;DHT22;13201;51.148;13.738;2022-10-31T17:21:17;15.90;99.90
25250;DHT22;13201;51.148;13.738;2022-10-31T17:23:43;15.90;99.90
25250;DHT22;13201;51.148;13.738;2022-10-31T17:26:09;15.80;99.90
25250;DHT22;13201;51.148;13.738;2022-10-31T17:28:35;15.80;99.90
25250;DHT22;13201;51.148;13.738;2022-10-31T17:31:01;15.60;99.90
25250;DHT22;13201;51.148;13.738;2022-10-31T17:33:27;15.40;99.90
25250;DHT22;13201;51.148;13.738;2022-10-31T17:35:52;15.60;99.90
25250;DHT22;13201;51.148;13.738;2022-10-31T17:38:18;15.60;99.90
25250;DHT22;13201;51.148;13.738;2022-10-31T17:40:43;15.40;99.90
25250;DHT22;13201;51.148;13.738;2022-10-31T17:43:10;15.40;99.90
25250;DHT22;13201;51.148;13.738;2022-10-31T17:45:38;15.40;99.90
25250;DHT22;13201;51.148;13.738;2022-10-31T17:48:04;15.30;99.90
25250;DHT22;13201;51.148;13.738;2022-10-31T17:50:30;15.20;99.90
25250;DHT22;13201;51.148;13.738;2022-10-31T17:52:57;15.10;99.90
25250;DHT22;13201;51.148;13.738;2022-10-31T17:55:23;15.20;99.90
25250;DHT22;13201;51.148;13.738;2022-10-31T17:57:49;15.20;99.90
25250;DHT22;13201;51.148;13.738;2022-10-31T18:00:17;15.20;99.90
25250;DHT22;13201;51.148;13.738;2022-10-31T18:02:45;15.20;99.90
25250;DHT22;13201;51.148;13.738;2022-10-31T18:05:11;15.10;99.90
25250;DHT22;13201;51.148;13.738;2022-10-31T18:07:37;15.10;99.90
25250;DHT22;13201;51.148;13.738;2022-10-31T18:10:03;15.10;99.90
25250;DHT22;13201;51.148;13.738;2022-10-31T18:12:29;15.00;99.90